sensor_id;sensor_type;location;lat;lon;timestamp;temperature;humidity
21559;DHT22;10940;48.890;8.240;2023-01-08T00:00:47;8.60;99.90
21559;DHT22;10940;48.890;8.240;2023-01-08T00:03:13;8.60;99.90
21559;DHT22;10940;48.890;8.240;2023-01-08T00:05:38;8.60;99.90
21559;DHT22;10940;48.890;8.240;2023-01-08T00:08:04;8.60;99.90
21559;DHT22;10940;48.890;8.240;2023-01-08T00:10:30;8.50;99.90
21559;DHT22;10940;48.890;8.240;2023-01-08T00:12:56;8.50;99.90
21559;DHT22;10940;48.890;8.240;2023-01-08T00:15:21;8.50;99.90
21559;DHT22;10940;48.890;8.240;2023-01-08T00:17:47;8.50;99.90
21559;DHT22;10940;48.890;8.240;2023-01-08T00:20:13;8.50;99.90
21559;DHT22;10940;48.890;8.240;2023-01-08T00:22:38;8.50;99.90
21559;DHT22;10940;48.890;8.240;2023-01-08T00:25:04;8.50;99.90
21559;DHT22;10940;48.890;8.240;2023-01-08T00:27:30;8.50;99.90
21559;DHT22;10940;48.890;8.240;2023-01-08T00:29:56;8.50;99.90
21559;DHT22;10940;48.890;8.240;2023-01-08T00:32:21;8.50;99.90
21559;DHT22;10940;48.890;8.240;2023-01-08T00:34:47;8.50;99.90
21559;DHT22;10940;48.890;8.240;2023-01-08T00:37:13;8.50;99.90
21559;DHT22;10940;48.890;8.240;2023-01-08T00:39:39;8.50;99.90
21559;DHT22;10940;48.890;8.240;2023-01-08T00:42:05;8.50;99.90
21559;DHT22;10940;48.890;8.240;2023-01-08T00:44:30;8.50;99.90
21559;DHT22;10940;48.890;8.240;2023-01-08T00:46:56;8.50;99.90
21559;DHT22;10940;48.890;8.240;2023-01-08T00:49:21;8.50;99.90
21559;DHT22;10940;48.890;8.240;2023-01-08T00:51:47;8.50;99.90
21559;DHT22;10940;48.890;8.240;2023-01-08T00:54:12;8.60;99.90
21559;DHT22;10940;48.890;8.240;2023-01-08T00:56:38;8.50;99.90
21559;DHT22;10940;48.890;8.240;2023-01-08T00:59:03;8.50;99.90
21559;DHT22;10940;48.890;8.240;2023-01-08T01:01:29;8.50;99.90
21559;DHT22;10940;48.890;8.240;2023-01-08T01:03:55;8.50;99.90
21559;DHT22;10940;48.890;8.240;2023-01-08T01:06:20;8.50;99.90
21559;DHT22;10940;48.890;8.240;2023-01-08T01:08:46;8.50;99.90
21559;DHT22;10940;48.890;8.240;2023-01-08T01:11:21;8.50;99.90
21559;DHT22;10940;48.890;8.240;2023-01-08T01:13:47;8.60;99.90
21559;DHT22;10940;48.890;8.240;2023-01-08T01:16:13;8.50;99.90
21559;DHT22;10940;48.890;8.240;2023-01-08T01:18:38;8.70;99.90
21559;DHT22;10940;48.890;8.240;2023-01-08T01:21:25;8.70;99.90
21559;DHT22;10940;48.890;8.240;2023-01-08T01:23:55;8.60;99.90
21559;DHT22;10940;48.890;8.240;2023-01-08T01:26:22;8.50;99.90
21559;DHT22;10940;48.890;8.240;2023-01-08T01:28:53;8.50;99.90
21559;DHT22;10940;48.890;8.240;2023-01-08T01:31:19;8.50;99.90
21559;DHT22;10940;48.890;8.240;2023-01-08T01:33:46;8.50;99.90
21559;DHT22;10940;48.890;8.240;2023-01-08T01:36:13;8.40;99.90
21559;DHT22;10940;48.890;8.240;2023-01-08T01:38:43;8.40;99.90
21559;DHT22;10940;48.890;8.240;2023-01-08T01:41:18;8.40;99.90
21559;DHT22;10940;48.890;8.240;2023-01-08T01:43:47;8.40;99.90
21559;DHT22;10940;48.890;8.240;2023-01-08T01:46:25;8.50;99.90
21559;DHT22;10940;48.890;8.240;2023-01-08T01:48:55;8.50;99.90
21559;DHT22;10940;48.890;8.240;2023-01-08T01:51:24;8.50;99.90
21559;DHT22;10940;48.890;8.240;2023-01-08T01:53:53;8.50;99.90
21559;DHT22;10940;48.890;8.240;2023-01-08T01:56:19;8.50;99.90
21559;DHT22;10940;48.890;8.240;2023-01-08T01:58:45;8.50;99.90
21559;DHT22;10940;48.890;8.240;2023-01-08T02:01:10;8.50;99.90
21559;DHT22;10940;48.890;8.240;2023-01-08T02:03:38;8.40;99.90
21559;DHT22;10940;48.890;8.240;2023-01-08T02:06:36;8.50;99.90
21559;DHT22;10940;48.890;8.240;2023-01-08T02:11:47;8.40;99.90
21559;DHT22;10940;48.890;8.240;2023-01-08T02:14:52;8.40;99.90
21559;DHT22;10940;48.890;8.240;2023-01-08T02:20:42;8.20;99.90
21559;DHT22;10940;48.890;8.240;2023-01-08T02:23:29;8.20;99.90
21559;DHT22;10940;48.890;8.240;2023-01-08T02:28:50;8.20;99.90
21559;DHT22;10940;48.890;8.240;2023-01-08T02:31:18;8.20;99.90
21559;DHT22;10940;48.890;8.240;2023-01-08T02:33:44;8.20;99.90
21559;DHT22;10940;48.890;8.240;2023-01-08T02:44:08;8.20;99.90
21559;DHT22;10940;48.890;8.240;2023-01-08T02:46:39;8.20;99.90
21559;DHT22;10940;48.890;8.240;2023-01-08T02:49:08;8.30;99.90
21559;DHT22;10940;48.890;8.240;2023-01-08T02:51:41;8.30;99.90
21559;DHT22;10940;48.890;8.240;2023-01-08T02:54:19;8.30;99.90
21559;DHT22;10940;48.890;8.240;2023-01-08T02:56:49;8.20;99.90
21559;DHT22;10940;48.890;8.240;2023-01-08T02:59:16;8.30;99.90
21559;DHT22;10940;48.890;8.240;2023-01-08T03:01:44;8.30;99.90
21559;DHT22;10940;48.890;8.240;2023-01-08T03:04:15;8.30;99.90
21559;DHT22;10940;48.890;8.240;2023-01-08T03:06:42;8.30;99.90
21559;DHT22;10940;48.890;8.240;2023-01-08T03:09:08;8.30;99.90
21559;DHT22;10940;48.890;8.240;2023-01-08T03:11:43;8.30;99.90
21559;DHT22;10940;48.890;8.240;2023-01-08T03:17:20;8.40;99.90
21559;DHT22;10940;48.890;8.240;2023-01-08T03:19:56;8.40;99.90
21559;DHT22;10940;48.890;8.240;2023-01-08T03:22:23;8.50;99.90
21559;DHT22;10940;48.890;8.240;2023-01-08T03:24:52;8.40;99.90
21559;DHT22;10940;48.890;8.240;2023-01-08T03:27:25;8.40;99.90
21559;DHT22;10940;48.890;8.240;2023-01-08T03:29:53;8.40;99.90
21559;DHT22;10940;48.890;8.240;2023-01-08T03:32:21;8.40;99.90
21559;DHT22;10940;48.890;8.240;2023-01-08T03:34:49;8.40;99.90
21559;DHT22;10940;48.890;8.240;2023-01-08T03:37:20;8.40;99.90
21559;DHT22;10940;48.890;8.240;2023-01-08T03:39:59;8.30;99.90
21559;DHT22;10940;48.890;8.240;2023-01-08T03:42:26;8.30;99.90
21559;DHT22;10940;48.890;8.240;2023-01-08T03:44:52;8.30;99.90
21559;DHT22;10940;48.890;8.240;2023-01-08T03:47:19;8.30;99.90
21559;DHT22;10940;48.890;8.240;2023-01-08T03:49:48;8.30;99.90
21559;DHT22;10940;48.890;8.240;2023-01-08T03:52:26;8.30;99.90
21559;DHT22;10940;48.890;8.240;2023-01-08T03:54:53;8.20;99.90
21559;DHT22;10940;48.890;8.240;2023-01-08T03:57:18;8.20;99.90
21559;DHT22;10940;48.890;8.240;2023-01-08T03:59:44;8.30;99.90
21559;DHT22;10940;48.890;8.240;2023-01-08T04:02:10;8.20;99.90
21559;DHT22;10940;48.890;8.240;2023-01-08T04:04:36;8.20;99.90
21559;DHT22;10940;48.890;8.240;2023-01-08T04:07:02;8.20;99.90
21559;DHT22;10940;48.890;8.240;2023-01-08T04:09:27;8.20;99.90
21559;DHT22;10940;48.890;8.240;2023-01-08T04:11:53;8.20;99.90
21559;DHT22;10940;48.890;8.240;2023-01-08T04:14:18;8.20;99.90
21559;DHT22;10940;48.890;8.240;2023-01-08T04:16:44;8.10;99.90
21559;DHT22;10940;48.890;8.240;2023-01-08T04:19:11;8.20;99.90
21559;DHT22;10940;48.890;8.240;2023-01-08T04:21:37;8.20;99.90
21559;DHT22;10940;48.890;8.240;2023-01-08T04:24:03;8.10;99.90
21559;DHT22;10940;48.890;8.240;2023-01-08T04:26:29;8.20;99.90
21559;DHT22;10940;48.890;8.240;2023-01-08T04:28:55;8.10;99.90
21559;DHT22;10940;48.890;8.240;2023-01-08T04:31:21;8.20;99.90
21559;DHT22;10940;48.890;8.240;2023-01-08T04:33:46;8.30;99.90
21559;DHT22;10940;48.890;8.240;2023-01-08T04:36:12;8.40;99.90
21559;DHT22;10940;48.890;8.240;2023-01-08T04:38:37;8.60;99.90
21559;DHT22;10940;48.890;8.240;2023-01-08T04:41:03;8.70;99.90
21559;DHT22;10940;48.890;8.240;2023-01-08T04:43:29;8.70;99.90
21559;DHT22;10940;48.890;8.240;2023-01-08T04:45:59;8.80;99.90
21559;DHT22;10940;48.890;8.240;2023-01-08T04:48:25;8.90;99.90
21559;DHT22;10940;48.890;8.240;2023-01-08T04:50:51;8.90;99.90
21559;DHT22;10940;48.890;8.240;2023-01-08T04:53:17;9.00;99.90
21559;DHT22;10940;48.890;8.240;2023-01-08T04:55:43;8.90;99.90
21559;DHT22;10940;48.890;8.240;2023-01-08T04:58:08;9.00;99.90
21559;DHT22;10940;48.890;8.240;2023-01-08T05:00:34;9.00;99.90
21559;DHT22;10940;48.890;8.240;2023-01-08T05:03:00;9.00;99.90
21559;DHT22;10940;48.890;8.240;2023-01-08T05:05:26;9.00;99.90
21559;DHT22;10940;48.890;8.240;2023-01-08T05:07:52;8.90;99.90
21559;DHT22;10940;48.890;8.240;2023-01-08T05:10:17;8.90;99.90
21559;DHT22;10940;48.890;8.240;2023-01-08T05:12:43;8.90;99.90
21559;DHT22;10940;48.890;8.240;2023-01-08T05:15:09;8.80;99.90
21559;DHT22;10940;48.890;8.240;2023-01-08T05:17:34;8.80;99.90
21559;DHT22;10940;48.890;8.240;2023-01-08T05:20:00;8.80;99.90
21559;DHT22;10940;48.890;8.240;2023-01-08T05:22:25;8.70;99.90
21559;DHT22;10940;48.890;8.240;2023-01-08T05:24:51;8.60;99.90
21559;DHT22;10940;48.890;8.240;2023-01-08T05:27:17;8.60;99.90
21559;DHT22;10940;48.890;8.240;2023-01-08T05:29:42;8.60;99.90
21559;DHT22;10940;48.890;8.240;2023-01-08T05:32:17;8.60;99.90
21559;DHT22;10940;48.890;8.240;2023-01-08T05:34:44;8.60;99.90
21559;DHT22;10940;48.890;8.240;2023-01-08T05:37:10;8.50;99.90
21559;DHT22;10940;48.890;8.240;2023-01-08T05:39:39;8.50;99.90
21559;DHT22;10940;48.890;8.240;2023-01-08T05:42:04;8.50;99.90
21559;DHT22;10940;48.890;8.240;2023-01-08T05:44:30;8.50;99.90
21559;DHT22;10940;48.890;8.240;2023-01-08T05:46:56;8.50;99.90
21559;DHT22;10940;48.890;8.240;2023-01-08T05:49:22;8.50;99.90
21559;DHT22;10940;48.890;8.240;2023-01-08T05:51:48;8.50;99.90
21559;DHT22;10940;48.890;8.240;2023-01-08T05:54:14;8.40;99.90
21559;DHT22;10940;48.890;8.240;2023-01-08T05:56:40;8.40;99.90
21559;DHT22;10940;48.890;8.240;2023-01-08T05:59:10;8.50;99.90
21559;DHT22;10940;48.890;8.240;2023-01-08T06:01:36;8.40;99.90
21559;DHT22;10940;48.890;8.240;2023-01-08T06:04:02;8.40;99.90
21559;DHT22;10940;48.890;8.240;2023-01-08T06:06:27;8.40;99.90
21559;DHT22;10940;48.890;8.240;2023-01-08T06:08:53;8.40;99.90
21559;DHT22;10940;48.890;8.240;2023-01-08T06:11:18;8.40;99.90
21559;DHT22;10940;48.890;8.240;2023-01-08T06:13:44;8.50;99.90
21559;DHT22;10940;48.890;8.240;2023-01-08T06:16:10;8.50;99.90
21559;DHT22;10940;48.890;8.240;2023-01-08T06:18:35;8.50;99.90
21559;DHT22;10940;48.890;8.240;2023-01-08T06:21:02;8.60;99.90
21559;DHT22;10940;48.890;8.240;2023-01-08T06:23:28;8.50;99.90
21559;DHT22;10940;48.890;8.240;2023-01-08T06:25:55;8.60;99.90
21559;DHT22;10940;48.890;8.240;2023-01-08T06:28:21;8.60;99.90
21559;DHT22;10940;48.890;8.240;2023-01-08T06:30:47;8.60;99.90
21559;DHT22;10940;48.890;8.240;2023-01-08T06:33:13;8.60;99.90
21559;DHT22;10940;48.890;8.240;2023-01-08T06:35:38;8.70;99.90
21559;DHT22;10940;48.890;8.240;2023-01-08T06:38:04;8.70;99.90
21559;DHT22;10940;48.890;8.240;2023-01-08T06:40:30;8.80;99.90
21559;DHT22;10940;48.890;8.240;2023-01-08T06:42:55;8.70;99.90
21559;DHT22;10940;48.890;8.240;2023-01-08T06:45:25;8.80;99.90
21559;DHT22;10940;48.890;8.240;2023-01-08T06:47:50;8.80;99.90
21559;DHT22;10940;48.890;8.240;2023-01-08T06:50:16;8.80;99.90
21559;DHT22;10940;48.890;8.240;2023-01-08T06:52:41;8.80;99.90
21559;DHT22;10940;48.890;8.240;2023-01-08T06:55:07;8.80;99.90
21559;DHT22;10940;48.890;8.240;2023-01-08T06:57:33;8.90;99.90
21559;DHT22;10940;48.890;8.240;2023-01-08T06:59:58;8.90;99.90
21559;DHT22;10940;48.890;8.240;2023-01-08T07:02:24;8.90;99.90
21559;DHT22;10940;48.890;8.240;2023-01-08T07:04:49;8.90;99.90
21559;DHT22;10940;48.890;8.240;2023-01-08T07:07:15;8.80;99.90
21559;DHT22;10940;48.890;8.240;2023-01-08T07:09:41;8.90;99.90
21559;DHT22;10940;48.890;8.240;2023-01-08T07:12:12;8.80;99.90
21559;DHT22;10940;48.890;8.240;2023-01-08T07:14:38;8.80;99.90
21559;DHT22;10940;48.890;8.240;2023-01-08T07:17:04;8.80;99.90
21559;DHT22;10940;48.890;8.240;2023-01-08T07:19:29;8.80;99.90
21559;DHT22;10940;48.890;8.240;2023-01-08T07:21:55;8.80;99.90
21559;DHT22;10940;48.890;8.240;2023-01-08T07:24:21;8.80;99.90
21559;DHT22;10940;48.890;8.240;2023-01-08T07:26:47;8.90;99.90
21559;DHT22;10940;48.890;8.240;2023-01-08T07:29:12;8.90;99.90
21559;DHT22;10940;48.890;8.240;2023-01-08T07:31:38;8.90;99.90
21559;DHT22;10940;48.890;8.240;2023-01-08T07:34:03;8.90;99.90
21559;DHT22;10940;48.890;8.240;2023-01-08T07:36:29;8.80;99.90
21559;DHT22;10940;48.890;8.240;2023-01-08T07:38:55;8.90;99.90
21559;DHT22;10940;48.890;8.240;2023-01-08T07:41:20;8.90;99.90
21559;DHT22;10940;48.890;8.240;2023-01-08T07:43:46;9.00;99.90
21559;DHT22;10940;48.890;8.240;2023-01-08T07:46:12;8.90;99.90
21559;DHT22;10940;48.890;8.240;2023-01-08T07:48:38;8.90;99.90
21559;DHT22;10940;48.890;8.240;2023-01-08T07:51:06;8.90;99.90
21559;DHT22;10940;48.890;8.240;2023-01-08T07:53:32;8.90;99.90
21559;DHT22;10940;48.890;8.240;2023-01-08T07:56:04;8.90;99.90
21559;DHT22;10940;48.890;8.240;2023-01-08T07:58:31;8.90;99.90
21559;DHT22;10940;48.890;8.240;2023-01-08T08:00:57;8.90;99.90
21559;DHT22;10940;48.890;8.240;2023-01-08T08:03:23;8.90;99.90
21559;DHT22;10940;48.890;8.240;2023-01-08T08:05:49;8.90;99.90
21559;DHT22;10940;48.890;8.240;2023-01-08T08:08:14;8.90;99.90
21559;DHT22;10940;48.890;8.240;2023-01-08T08:10:41;8.90;99.90
21559;DHT22;10940;48.890;8.240;2023-01-08T08:13:07;9.00;99.90
21559;DHT22;10940;48.890;8.240;2023-01-08T08:15:34;9.00;99.90
21559;DHT22;10940;48.890;8.240;2023-01-08T08:18:00;9.00;99.90
21559;DHT22;10940;48.890;8.240;2023-01-08T08:20:26;9.00;99.90
21559;DHT22;10940;48.890;8.240;2023-01-08T08:22:58;9.10;99.90
21559;DHT22;10940;48.890;8.240;2023-01-08T08:25:24;9.00;99.90
21559;DHT22;10940;48.890;8.240;2023-01-08T08:27:50;9.00;99.90
21559;DHT22;10940;48.890;8.240;2023-01-08T08:30:15;9.10;99.90
21559;DHT22;10940;48.890;8.240;2023-01-08T08:32:41;9.00;99.90
21559;DHT22;10940;48.890;8.240;2023-01-08T08:35:06;9.00;99.90
21559;DHT22;10940;48.890;8.240;2023-01-08T08:37:32;9.00;99.90
21559;DHT22;10940;48.890;8.240;2023-01-08T08:39:58;9.00;99.90
21559;DHT22;10940;48.890;8.240;2023-01-08T08:42:23;9.00;99.90
21559;DHT22;10940;48.890;8.240;2023-01-08T08:44:49;9.00;99.90
21559;DHT22;10940;48.890;8.240;2023-01-08T08:47:14;9.00;99.90
21559;DHT22;10940;48.890;8.240;2023-01-08T08:49:40;8.90;99.90
21559;DHT22;10940;48.890;8.240;2023-01-08T08:52:06;9.00;99.90
21559;DHT22;10940;48.890;8.240;2023-01-08T08:54:31;9.00;99.90
21559;DHT22;10940;48.890;8.240;2023-01-08T08:56:57;9.00;99.90
21559;DHT22;10940;48.890;8.240;2023-01-08T08:59:22;9.00;99.90
21559;DHT22;10940;48.890;8.240;2023-01-08T09:01:48;9.00;99.90
21559;DHT22;10940;48.890;8.240;2023-01-08T09:04:14;9.00;99.90
21559;DHT22;10940;48.890;8.240;2023-01-08T09:06:39;9.00;99.90
21559;DHT22;10940;48.890;8.240;2023-01-08T09:09:05;9.00;99.90
21559;DHT22;10940;48.890;8.240;2023-01-08T09:11:31;9.00;99.90
21559;DHT22;10940;48.890;8.240;2023-01-08T09:13:56;9.00;99.90
21559;DHT22;10940;48.890;8.240;2023-01-08T09:16:22;9.00;99.90
21559;DHT22;10940;48.890;8.240;2023-01-08T09:18:47;9.10;99.90
21559;DHT22;10940;48.890;8.240;2023-01-08T09:21:14;9.10;99.90
21559;DHT22;10940;48.890;8.240;2023-01-08T09:23:40;9.00;99.90
21559;DHT22;10940;48.890;8.240;2023-01-08T09:26:06;9.20;99.90
21559;DHT22;10940;48.890;8.240;2023-01-08T09:28:32;9.20;99.90
21559;DHT22;10940;48.890;8.240;2023-01-08T09:31:01;9.10;99.90
21559;DHT22;10940;48.890;8.240;2023-01-08T09:33:28;9.10;99.90
21559;DHT22;10940;48.890;8.240;2023-01-08T09:35:54;9.20;99.90
21559;DHT22;10940;48.890;8.240;2023-01-08T09:38:20;9.20;99.90
21559;DHT22;10940;48.890;8.240;2023-01-08T09:40:54;9.20;99.90
21559;DHT22;10940;48.890;8.240;2023-01-08T09:43:23;9.20;99.90
21559;DHT22;10940;48.890;8.240;2023-01-08T09:45:51;9.20;99.90
21559;DHT22;10940;48.890;8.240;2023-01-08T09:48:24;9.20;99.90
21559;DHT22;10940;48.890;8.240;2023-01-08T09:50:50;9.20;99.90
21559;DHT22;10940;48.890;8.240;2023-01-08T09:53:17;9.20;99.90
21559;DHT22;10940;48.890;8.240;2023-01-08T09:55:44;9.20;99.90
21559;DHT22;10940;48.890;8.240;2023-01-08T10:00:48;9.30;99.90
21559;DHT22;10940;48.890;8.240;2023-01-08T10:03:14;9.30;99.90
21559;DHT22;10940;48.890;8.240;2023-01-08T10:05:39;9.30;99.90
21559;DHT22;10940;48.890;8.240;2023-01-08T10:08:12;9.40;99.90
21559;DHT22;10940;48.890;8.240;2023-01-08T10:10:38;9.40;99.90
21559;DHT22;10940;48.890;8.240;2023-01-08T10:13:09;9.50;99.90
21559;DHT22;10940;48.890;8.240;2023-01-08T10:15:35;9.50;99.90
21559;DHT22;10940;48.890;8.240;2023-01-08T10:18:03;9.60;99.90
21559;DHT22;10940;48.890;8.240;2023-01-08T10:20:30;9.60;99.90
21559;DHT22;10940;48.890;8.240;2023-01-08T10:23:12;9.60;99.90
21559;DHT22;10940;48.890;8.240;2023-01-08T10:25:58;9.70;99.90
21559;DHT22;10940;48.890;8.240;2023-01-08T10:28:28;9.70;99.90
21559;DHT22;10940;48.890;8.240;2023-01-08T10:31:03;9.70;99.90
21559;DHT22;10940;48.890;8.240;2023-01-08T10:33:37;9.80;99.90
21559;DHT22;10940;48.890;8.240;2023-01-08T10:36:06;9.80;99.90
21559;DHT22;10940;48.890;8.240;2023-01-08T10:38:53;9.80;99.90
21559;DHT22;10940;48.890;8.240;2023-01-08T10:41:20;9.90;99.90
21559;DHT22;10940;48.890;8.240;2023-01-08T10:44:34;9.90;99.90
21559;DHT22;10940;48.890;8.240;2023-01-08T10:46:43;9.90;99.90
21559;DHT22;10940;48.890;8.240;2023-01-08T10:49:30;9.90;99.90
21559;DHT22;10940;48.890;8.240;2023-01-08T10:51:57;10.00;99.90
21559;DHT22;10940;48.890;8.240;2023-01-08T10:54:38;10.10;99.90
21559;DHT22;10940;48.890;8.240;2023-01-08T10:57:27;10.00;99.90
21559;DHT22;10940;48.890;8.240;2023-01-08T10:59:54;10.10;99.90
21559;DHT22;10940;48.890;8.240;2023-01-08T11:02:36;10.20;99.90
21559;DHT22;10940;48.890;8.240;2023-01-08T11:05:04;10.20;99.90
21559;DHT22;10940;48.890;8.240;2023-01-08T11:07:32;10.30;99.90
21559;DHT22;10940;48.890;8.240;2023-01-08T11:10:00;10.30;99.90
21559;DHT22;10940;48.890;8.240;2023-01-08T11:15:02;10.30;99.90
21559;DHT22;10940;48.890;8.240;2023-01-08T11:17:28;10.30;99.90
21559;DHT22;10940;48.890;8.240;2023-01-08T11:20:04;10.40;99.90
21559;DHT22;10940;48.890;8.240;2023-01-08T11:22:31;10.40;99.90
21559;DHT22;10940;48.890;8.240;2023-01-08T11:24:57;10.40;99.90
21559;DHT22;10940;48.890;8.240;2023-01-08T11:27:36;10.50;99.90
21559;DHT22;10940;48.890;8.240;2023-01-08T11:32:41;10.60;99.90
21559;DHT22;10940;48.890;8.240;2023-01-08T11:48:39;10.80;99.90
21559;DHT22;10940;48.890;8.240;2023-01-08T11:54:21;10.90;99.90
21559;DHT22;10940;48.890;8.240;2023-01-08T12:11:28;10.80;99.90
21559;DHT22;10940;48.890;8.240;2023-01-08T12:25:25;10.80;99.90
21559;DHT22;10940;48.890;8.240;2023-01-08T12:28:08;10.80;99.90
21559;DHT22;10940;48.890;8.240;2023-01-08T12:33:52;10.80;99.90
21559;DHT22;10940;48.890;8.240;2023-01-08T12:36:26;10.90;99.90
21559;DHT22;10940;48.890;8.240;2023-01-08T12:39:01;10.90;99.90
21559;DHT22;10940;48.890;8.240;2023-01-08T12:41:28;11.00;99.90
21559;DHT22;10940;48.890;8.240;2023-01-08T12:44:07;11.00;99.90
21559;DHT22;10940;48.890;8.240;2023-01-08T12:46:38;11.00;99.90
21559;DHT22;10940;48.890;8.240;2023-01-08T12:49:07;11.00;99.90
21559;DHT22;10940;48.890;8.240;2023-01-08T12:51:59;10.90;99.90
21559;DHT22;10940;48.890;8.240;2023-01-08T12:55:20;11.00;99.90
21559;DHT22;10940;48.890;8.240;2023-01-08T12:57:41;10.90;99.90
21559;DHT22;10940;48.890;8.240;2023-01-08T13:03:00;10.80;99.90
21559;DHT22;10940;48.890;8.240;2023-01-08T13:05:34;10.80;99.90
21559;DHT22;10940;48.890;8.240;2023-01-08T13:08:03;10.80;99.90
21559;DHT22;10940;48.890;8.240;2023-01-08T13:12:58;10.80;99.90
21559;DHT22;10940;48.890;8.240;2023-01-08T13:15:28;10.80;99.90
21559;DHT22;10940;48.890;8.240;2023-01-08T13:17:56;10.90;99.90
21559;DHT22;10940;48.890;8.240;2023-01-08T13:20:31;11.00;99.90
21559;DHT22;10940;48.890;8.240;2023-01-08T13:23:02;11.00;99.90
21559;DHT22;10940;48.890;8.240;2023-01-08T13:25:34;11.00;99.90
21559;DHT22;10940;48.890;8.240;2023-01-08T13:28:16;11.00;99.90
21559;DHT22;10940;48.890;8.240;2023-01-08T13:30:42;11.10;99.90
21559;DHT22;10940;48.890;8.240;2023-01-08T13:36:18;11.10;99.90
21559;DHT22;10940;48.890;8.240;2023-01-08T13:41:42;11.00;99.90
21559;DHT22;10940;48.890;8.240;2023-01-08T13:44:25;11.00;99.90
21559;DHT22;10940;48.890;8.240;2023-01-08T13:46:54;10.90;99.90
21559;DHT22;10940;48.890;8.240;2023-01-08T13:49:41;11.00;99.90
21559;DHT22;10940;48.890;8.240;2023-01-08T13:52:30;11.00;99.90
21559;DHT22;10940;48.890;8.240;2023-01-08T13:54:57;11.00;99.90
21559;DHT22;10940;48.890;8.240;2023-01-08T13:57:23;11.00;99.90
21559;DHT22;10940;48.890;8.240;2023-01-08T13:59:55;11.00;99.90
21559;DHT22;10940;48.890;8.240;2023-01-08T14:02:28;11.00;99.90
21559;DHT22;10940;48.890;8.240;2023-01-08T14:04:54;11.00;99.90
21559;DHT22;10940;48.890;8.240;2023-01-08T14:07:21;11.00;99.90
21559;DHT22;10940;48.890;8.240;2023-01-08T14:09:48;11.00;99.90
21559;DHT22;10940;48.890;8.240;2023-01-08T14:12:17;11.00;99.90
21559;DHT22;10940;48.890;8.240;2023-01-08T14:14:53;11.00;99.90
21559;DHT22;10940;48.890;8.240;2023-01-08T14:17:24;10.90;99.90
21559;DHT22;10940;48.890;8.240;2023-01-08T14:19:52;11.00;99.90
21559;DHT22;10940;48.890;8.240;2023-01-08T14:22:30;11.00;99.90
21559;DHT22;10940;48.890;8.240;2023-01-08T14:25:02;11.00;99.90
21559;DHT22;10940;48.890;8.240;2023-01-08T14:27:30;10.90;99.90
21559;DHT22;10940;48.890;8.240;2023-01-08T14:29:57;11.00;99.90
21559;DHT22;10940;48.890;8.240;2023-01-08T14:32:24;11.00;99.90
21559;DHT22;10940;48.890;8.240;2023-01-08T14:34:51;11.00;99.90
21559;DHT22;10940;48.890;8.240;2023-01-08T14:37:18;10.90;99.90
21559;DHT22;10940;48.890;8.240;2023-01-08T14:39:45;11.00;99.90
21559;DHT22;10940;48.890;8.240;2023-01-08T14:42:18;10.90;99.90
21559;DHT22;10940;48.890;8.240;2023-01-08T14:45:13;10.90;99.90
21559;DHT22;10940;48.890;8.240;2023-01-08T14:47:46;10.90;99.90
21559;DHT22;10940;48.890;8.240;2023-01-08T14:50:27;10.90;99.90
21559;DHT22;10940;48.890;8.240;2023-01-08T14:52:57;10.90;99.90
21559;DHT22;10940;48.890;8.240;2023-01-08T14:55:24;10.90;99.90
21559;DHT22;10940;48.890;8.240;2023-01-08T14:57:52;10.90;99.90
21559;DHT22;10940;48.890;8.240;2023-01-08T15:00:23;10.90;99.90
21559;DHT22;10940;48.890;8.240;2023-01-08T15:02:49;10.90;99.90
21559;DHT22;10940;48.890;8.240;2023-01-08T15:05:17;10.80;99.90
21559;DHT22;10940;48.890;8.240;2023-01-08T15:07:58;10.80;99.90
21559;DHT22;10940;48.890;8.240;2023-01-08T15:10:34;10.80;99.90
21559;DHT22;10940;48.890;8.240;2023-01-08T15:13:01;10.70;99.90
21559;DHT22;10940;48.890;8.240;2023-01-08T15:15:31;10.70;99.90
21559;DHT22;10940;48.890;8.240;2023-01-08T15:17:57;10.60;99.90
21559;DHT22;10940;48.890;8.240;2023-01-08T15:20:28;10.60;99.90
21559;DHT22;10940;48.890;8.240;2023-01-08T15:22:54;10.60;99.90
21559;DHT22;10940;48.890;8.240;2023-01-08T15:25:26;10.60;99.90
21559;DHT22;10940;48.890;8.240;2023-01-08T15:28:02;10.60;99.90
21559;DHT22;10940;48.890;8.240;2023-01-08T15:30:43;10.60;99.90
21559;DHT22;10940;48.890;8.240;2023-01-08T15:33:22;10.60;99.90
21559;DHT22;10940;48.890;8.240;2023-01-08T15:35:49;10.60;99.90
21559;DHT22;10940;48.890;8.240;2023-01-08T15:38:16;10.50;99.90
21559;DHT22;10940;48.890;8.240;2023-01-08T15:40:42;10.50;99.90
21559;DHT22;10940;48.890;8.240;2023-01-08T15:43:11;10.50;99.90
21559;DHT22;10940;48.890;8.240;2023-01-08T15:45:45;10.50;99.90
21559;DHT22;10940;48.890;8.240;2023-01-08T15:48:11;10.50;99.90
21559;DHT22;10940;48.890;8.240;2023-01-08T15:50:39;10.50;99.90
21559;DHT22;10940;48.890;8.240;2023-01-08T15:53:16;10.50;99.90
21559;DHT22;10940;48.890;8.240;2023-01-08T15:55:43;10.50;99.90
21559;DHT22;10940;48.890;8.240;2023-01-08T15:58:11;10.50;99.90
21559;DHT22;10940;48.890;8.240;2023-01-08T16:00:38;10.50;99.90
21559;DHT22;10940;48.890;8.240;2023-01-08T16:03:04;10.50;99.90
21559;DHT22;10940;48.890;8.240;2023-01-08T16:05:31;10.50;99.90
21559;DHT22;10940;48.890;8.240;2023-01-08T16:07:57;10.50;99.90
21559;DHT22;10940;48.890;8.240;2023-01-08T16:10:24;10.50;99.90
21559;DHT22;10940;48.890;8.240;2023-01-08T16:12:50;10.40;99.90
21559;DHT22;10940;48.890;8.240;2023-01-08T16:15:17;10.40;99.90
21559;DHT22;10940;48.890;8.240;2023-01-08T16:17:43;10.40;99.90
21559;DHT22;10940;48.890;8.240;2023-01-08T16:20:09;10.30;99.90
21559;DHT22;10940;48.890;8.240;2023-01-08T16:22:35;10.30;99.90
21559;DHT22;10940;48.890;8.240;2023-01-08T16:25:01;10.30;99.90
21559;DHT22;10940;48.890;8.240;2023-01-08T16:27:28;10.30;99.90
21559;DHT22;10940;48.890;8.240;2023-01-08T16:29:54;10.30;99.90
21559;DHT22;10940;48.890;8.240;2023-01-08T16:32:20;10.20;99.90
21559;DHT22;10940;48.890;8.240;2023-01-08T16:34:45;10.20;99.90
21559;DHT22;10940;48.890;8.240;2023-01-08T16:37:11;10.10;99.90
21559;DHT22;10940;48.890;8.240;2023-01-08T16:39:36;10.10;99.90
21559;DHT22;10940;48.890;8.240;2023-01-08T16:42:02;10.00;99.90
21559;DHT22;10940;48.890;8.240;2023-01-08T16:44:29;10.00;99.90
21559;DHT22;10940;48.890;8.240;2023-01-08T16:46:57;10.00;99.90
21559;DHT22;10940;48.890;8.240;2023-01-08T16:49:23;9.90;99.90
21559;DHT22;10940;48.890;8.240;2023-01-08T16:51:48;9.90;99.90
21559;DHT22;10940;48.890;8.240;2023-01-08T16:54:15;9.80;99.90
21559;DHT22;10940;48.890;8.240;2023-01-08T16:56:41;9.80;99.90
21559;DHT22;10940;48.890;8.240;2023-01-08T16:59:08;9.70;99.90
21559;DHT22;10940;48.890;8.240;2023-01-08T17:01:36;9.70;99.90
21559;DHT22;10940;48.890;8.240;2023-01-08T17:04:02;9.70;99.90
21559;DHT22;10940;48.890;8.240;2023-01-08T17:06:28;9.70;99.90
21559;DHT22;10940;48.890;8.240;2023-01-08T17:08:54;9.60;99.90
21559;DHT22;10940;48.890;8.240;2023-01-08T17:11:22;9.70;99.90
21559;DHT22;10940;48.890;8.240;2023-01-08T17:13:48;9.60;99.90
21559;DHT22;10940;48.890;8.240;2023-01-08T17:16:15;9.60;99.90